Terminal Aerodrome Forecast
Issued by NWS Charleston, SC

Home | Current Version | Previous Version | Text Only | Print | Product List | Glossary On
Versions: 1 2 3 4 5 6 7 8 9 10 11 12 13
018
FTUS42 KCHS 201120
TAFCHS
TAF
KCHS 201120Z 2012/2112 VRB02KT P6SM FEW035 SCT200
     FM201800 14009KT P6SM SCT045
     FM210100 16005KT P6SM SCT080 BKN250=

USA.gov is the U.S. government's official web portal to all federal, state and local government web resources and services.